SBPASBCT

Guest
Details From SBPA - Salgado Filho
To SBCT - Afonso Pena
Flight Number -
Tags Decoded
Created
Modified
Stats Distance 289 nm / 534 km
Max Altitude 0 ft / 0 m
Waypoints 2
Social Downloads 2
Likes 0
Share VATSIM

Download

Looking for another format? Having issues loading an existing format? Contact us
Advertisement - Login to hide

Notes

Decoded

Route

SBPA SBCT

ID Type Via Altitude Latitude Longitude Leg Dist Tot Dist Heading (true) Name
O SBPA APT - 0 ft / 0 m -29.99414˚ -51.18327˚ - 0 nm - -
O SBCT APT - 0 ft / 0 m -25.52836˚ -49.18010˚ 288 nm 288 nm 22° / 21° -

Altitude Profile

Advertisement - Login to hide

Weather


0- 5 10 15 20 25 30 35+ Temperature / ° C

Clouds and Precipitation
Forecast for 2017-12-15 00:00 UTC. Updated 2 hours ago

Ground ~20,000 ft ~40,000 ft Winds

SBPA

Details ICAO SBPA (POA)
Name Salgado Filho
Region Brazil
Timezone America/Sao_Paulo (UTC-2.0)
Stats Elevation 11 ft / 3 m (AMSL)
Location -29.994428° -51.171426°
Runways 1
Magnetic Variation 16.878° W

METAR

SBPA 142100Z 25013KT 9999 FEW040 27/20 Q1011

Decode

TAF

Not found

Departure Runways

ID Width Length Bearing (true) Bearing (mag) Surface Threshold Offset Overrun Length
11 138 ft / 42 m 7,487 ft / 2,282 m 91.60° 108.48° Asphalt 0 ft / 0 m 230 ft / 70 m
29 138 ft / 42 m 7,487 ft / 2,282 m 271.59° 288.47° Asphalt 0 ft / 0 m 197 ft / 60 m

SBCT

Details ICAO SBCT (CWB)
Name Afonso Pena
Region Brazil
Timezone America/Sao_Paulo (UTC-2.0)
Stats Elevation 2,988 ft / 911 m (AMSL)
Location -25.528885° -49.173062°
Runways 2
Magnetic Variation 19.613° W

METAR

SBCT 142100Z 18008KT 9999 FEW040 26/20 Q1016

Decode

TAF

TAF SBCT 141500Z 1418/1518 03007KT 9999 FEW040 TX29/1418Z TN18/1508Z BECMG 1506/1508 SCT010 PROB40 TEMPO 1508/1512 8000 RA BKN010 BECMG 1512/1514 BKN030 PROB40 TEMPO 1514/1516 VCSH BKN030 FEW040TCU RMK PDW

Decode

Destination Runways

ID Width Length Bearing (true) Bearing (mag) Surface Threshold Offset Overrun Length
11 148 ft / 45 m 5,909 ft / 1,801 m 91.79° 111.40° Asphalt 0 ft / 0 m 0 ft / 0 m
15 148 ft / 45 m 7,290 ft / 2,222 m 134.76° 154.37° Asphalt 0 ft / 0 m 190 ft / 58 m
29 148 ft / 45 m 5,909 ft / 1,801 m 271.78° 291.39° Asphalt 0 ft / 0 m 0 ft / 0 m
33 148 ft / 45 m 7,290 ft / 2,222 m 314.75° 334.36° Asphalt 0 ft / 0 m 185 ft / 56 m

Approach Navaids

Runway Type Ident Frequency Range Bearing (true) Bearing (mag) Slope Elevation
15 Localiser ICT 109.30 MHz 18 nm / 33 km 134.93° 154.54° - 2,990 ft / 911 m (AMSL)
15 Glidescope ICT 109.30 MHz 10 nm / 19 km 134.75° 154.37° 3.04° 2,990 ft / 911 m (AMSL)

Popular Alternatives